createdAt,value
2019-02-04T00:00:56.615Z,4.97
2019-02-04T00:03:22.975Z,5.20
2019-02-04T00:05:49.632Z,4.72
2019-02-04T00:08:16.193Z,5.40
2019-02-04T00:10:42.847Z,4.60
2019-02-04T00:13:09.180Z,5.30
2019-02-04T00:15:35.620Z,6.17
2019-02-04T00:18:03.851Z,5.20
2019-02-04T00:20:30.108Z,5.30
2019-02-04T00:22:56.333Z,5.35
2019-02-04T00:25:22.597Z,5.37
2019-02-04T00:27:49.215Z,4.75
2019-02-04T00:30:21.243Z,4.33
2019-02-04T00:32:47.461Z,4.67
2019-02-04T00:35:14.203Z,4.97
2019-02-04T00:37:40.423Z,4.80
2019-02-04T00:40:16.779Z,3.83
2019-02-04T00:42:43.300Z,4.33
2019-02-04T00:45:10.105Z,4.78
2019-02-04T00:47:36.318Z,4.53
2019-02-04T00:50:05.555Z,4.30
2019-02-04T00:52:31.916Z,4.67
2019-02-04T00:54:58.219Z,5.95
2019-02-04T00:57:24.708Z,6.08
2019-02-04T00:59:51.395Z,5.35
2019-02-04T01:02:18.028Z,5.25
2019-02-04T01:04:44.263Z,5.55
2019-02-04T01:07:10.856Z,5.80
2019-02-04T01:09:37.095Z,5.30
2019-02-04T01:12:04.028Z,6.55
2019-02-04T01:14:30.563Z,4.80
2019-02-04T01:17:03.382Z,5.62
2019-02-04T01:19:25.247Z,5.45
2019-02-04T01:21:51.485Z,5.62
2019-02-04T01:24:17.725Z,5.80
2019-02-04T01:26:44.269Z,6.33
2019-02-04T01:29:10.508Z,5.40
2019-02-04T01:31:36.719Z,4.92
2019-02-04T01:34:03.284Z,6.62
2019-02-04T01:36:29.495Z,4.47
2019-02-04T01:38:55.854Z,5.17
2019-02-04T01:41:22.173Z,5.00
2019-02-04T01:43:48.407Z,5.00
2019-02-04T01:46:14.631Z,4.87
2019-02-04T01:48:40.872Z,4.67
2019-02-04T01:51:07.104Z,4.75
2019-02-04T01:53:33.341Z,5.42
2019-02-04T01:56:00.187Z,4.72
2019-02-04T01:58:26.462Z,5.05
2019-02-04T02:00:54.118Z,4.58
2019-02-04T02:03:20.284Z,4.58
2019-02-04T02:05:46.507Z,5.00
2019-02-04T02:08:13.129Z,5.25
2019-02-04T02:10:39.344Z,4.70
2019-02-04T02:13:05.696Z,4.65
2019-02-04T02:15:32.195Z,5.42
2019-02-04T02:17:58.768Z,4.30
2019-02-04T02:20:27.545Z,4.92
2019-02-04T02:22:53.800Z,4.78
2019-02-04T02:25:20.011Z,4.92
2019-02-04T02:27:46.358Z,7.75
2019-02-04T02:30:24.836Z,5.47
2019-02-04T02:32:51.107Z,4.60
2019-02-04T02:35:17.313Z,4.40
2019-02-04T02:37:43.554Z,4.62
2019-02-04T02:40:13.886Z,4.80
2019-02-04T02:42:40.119Z,4.35
2019-02-04T02:45:07.381Z,4.90
2019-02-04T02:47:38.472Z,4.72
2019-02-04T02:50:05.267Z,4.85
2019-02-04T02:52:31.527Z,5.30
2019-02-04T02:54:57.756Z,5.53
2019-02-04T02:57:24.007Z,4.95
2019-02-04T02:59:50.225Z,4.90
2019-02-04T03:02:16.468Z,5.00
2019-02-04T03:04:43.087Z,5.60
2019-02-04T03:07:09.335Z,5.37
2019-02-04T03:09:35.550Z,5.60
2019-02-04T03:12:01.783Z,4.95
2019-02-04T03:14:28.116Z,5.53
2019-02-04T03:16:54.359Z,5.78
2019-02-04T03:19:20.595Z,5.45
2019-02-04T03:21:46.819Z,5.70
2019-02-04T03:24:13.356Z,5.50
2019-02-04T03:26:39.892Z,5.37
2019-02-04T03:29:06.429Z,5.72
2019-02-04T03:31:32.664Z,6.53
2019-02-04T03:33:58.911Z,5.60
2019-02-04T03:36:25.124Z,5.15
2019-02-04T03:38:51.346Z,6.08
2019-02-04T03:41:17.582Z,7.08
2019-02-04T03:43:44.151Z,5.95
2019-02-04T03:46:10.562Z,6.17
2019-02-04T03:48:36.775Z,6.83
2019-02-04T03:51:03.133Z,5.90
2019-02-04T03:53:29.373Z,6.15
2019-02-04T03:55:55.609Z,6.67
2019-02-04T03:58:21.862Z,6.65
2019-02-04T04:00:48.291Z,6.17
2019-02-04T04:03:14.516Z,6.58
2019-02-04T04:05:40.765Z,7.20
2019-02-04T04:08:07.420Z,6.55
2019-02-04T04:10:33.955Z,6.25
2019-02-04T04:13:00.205Z,6.42
2019-02-04T04:15:26.843Z,7.37
2019-02-04T04:17:53.155Z,7.25
2019-02-04T04:20:20.096Z,7.12
2019-02-04T04:22:46.523Z,7.37
2019-02-04T04:25:14.787Z,7.47
2019-02-04T04:27:41.311Z,7.22
2019-02-04T04:30:14.272Z,7.25
2019-02-04T04:32:40.524Z,6.53
2019-02-04T04:35:06.947Z,7.03
2019-02-04T04:37:33.200Z,7.40
2019-02-04T04:39:59.760Z,6.90
2019-02-04T04:42:26.013Z,6.30
2019-02-04T04:44:52.238Z,5.92
2019-02-04T04:47:18.570Z,6.05
2019-02-04T04:49:44.799Z,6.50
2019-02-04T04:52:11.068Z,6.37
2019-02-04T04:54:37.687Z,6.00
2019-02-04T04:57:04.487Z,5.40
2019-02-04T04:59:30.716Z,6.00
2019-02-04T05:01:56.943Z,6.33
2019-02-04T05:04:23.199Z,5.50
2019-02-04T05:06:49.416Z,5.67
2019-02-04T05:09:15.672Z,6.53
2019-02-04T05:11:41.901Z,5.90
2019-02-04T05:14:08.438Z,8.00
2019-02-04T05:16:34.668Z,6.78
2019-02-04T05:19:00.888Z,6.20
2019-02-04T05:21:27.128Z,5.92
2019-02-04T05:23:53.358Z,7.10
2019-02-04T05:26:19.591Z,6.17
2019-02-04T05:28:46.179Z,6.28
2019-02-04T05:31:12.395Z,6.83
2019-02-04T05:33:38.667Z,5.80
2019-02-04T05:36:10.908Z,6.50
2019-02-04T05:38:37.148Z,6.03
2019-02-04T05:41:03.371Z,6.12
2019-02-04T05:43:29.618Z,6.10
2019-02-04T05:45:55.853Z,6.20
2019-02-04T05:48:22.063Z,6.78
2019-02-04T05:50:48.541Z,6.12
2019-02-04T05:53:14.783Z,5.42
2019-02-04T05:55:41.027Z,6.03
2019-02-04T05:58:07.379Z,7.15
2019-02-04T06:00:35.859Z,5.37
2019-02-04T06:03:02.292Z,6.20
2019-02-04T06:05:28.551Z,6.37
2019-02-04T06:07:55.067Z,6.10
2019-02-04T06:10:21.399Z,6.62
2019-02-04T06:12:47.638Z,6.75
2019-02-04T06:15:15.482Z,6.60
2019-02-04T06:17:41.786Z,6.90
2019-02-04T06:20:11.771Z,6.45
2019-02-04T06:22:38.019Z,6.87
2019-02-04T06:25:05.161Z,6.30
2019-02-04T06:27:31.427Z,6.15
2019-02-04T06:29:57.979Z,7.20
2019-02-04T06:32:24.247Z,6.67
2019-02-04T06:34:50.477Z,6.85
2019-02-04T06:37:36.600Z,8.35
2019-02-04T06:40:06.724Z,6.70
2019-02-04T06:42:33.000Z,7.17
2019-02-04T06:44:59.217Z,7.42
2019-02-04T06:47:25.463Z,7.33
2019-02-04T06:49:51.726Z,7.25
2019-02-04T06:52:17.967Z,7.03
2019-02-04T06:54:44.348Z,7.15
2019-02-04T06:57:10.992Z,6.78
2019-02-04T06:59:37.241Z,7.17
2019-02-04T07:02:03.936Z,6.95
2019-02-04T07:04:30.145Z,8.40
2019-02-04T07:06:56.490Z,6.90
2019-02-04T07:09:22.799Z,7.25
2019-02-04T07:11:49.926Z,7.55
2019-02-04T07:14:16.466Z,7.37
2019-02-04T07:16:43.664Z,7.83
2019-02-04T07:19:10.000Z,9.85
2019-02-04T07:21:36.254Z,9.60
2019-02-04T07:24:02.576Z,8.38
2019-02-04T07:26:29.019Z,9.65
2019-02-04T07:28:55.625Z,9.50
2019-02-04T07:31:21.878Z,9.90
2019-02-04T07:33:48.092Z,9.50
2019-02-04T07:36:14.350Z,10.00
2019-02-04T07:38:40.583Z,10.70
2019-02-04T07:41:06.819Z,10.05
2019-02-04T07:43:33.143Z,11.35
2019-02-04T07:45:59.483Z,10.38
2019-02-04T07:48:25.695Z,11.48
2019-02-04T07:50:51.936Z,11.20
2019-02-04T07:53:20.163Z,11.60
2019-02-04T07:55:46.980Z,12.10
2019-02-04T07:58:13.193Z,11.05
2019-02-04T08:00:39.816Z,11.45
2019-02-04T08:03:06.181Z,12.25
2019-02-04T08:05:32.405Z,11.70
2019-02-04T08:07:59.525Z,12.80
2019-02-04T08:10:25.863Z,12.40
2019-02-04T08:13:01.086Z,12.10
2019-02-04T08:15:28.908Z,13.70
2019-02-04T08:17:56.010Z,14.20
2019-02-04T08:20:22.850Z,12.43
2019-02-04T08:22:49.288Z,12.80
2019-02-04T08:25:16.304Z,13.55
2019-02-04T08:27:42.781Z,12.43
2019-02-04T08:30:13.303Z,13.35
2019-02-04T08:32:39.522Z,14.10
2019-02-04T08:35:06.979Z,13.60
2019-02-04T08:37:33.215Z,12.35
2019-02-04T08:39:59.464Z,13.98
2019-02-04T08:42:25.687Z,12.85
2019-02-04T08:44:51.932Z,13.08
2019-02-04T08:47:23.082Z,14.05
2019-02-04T08:49:46.205Z,15.13
2019-02-04T08:52:12.460Z,14.75
2019-02-04T08:54:38.729Z,13.40
2019-02-04T08:57:05.178Z,15.48
2019-02-04T08:59:31.387Z,15.18
2019-02-04T09:01:57.715Z,14.78
2019-02-04T09:04:23.968Z,14.87
2019-02-04T09:06:50.480Z,16.07
2019-02-04T09:09:16.823Z,16.05
2019-02-04T09:11:43.347Z,15.95
2019-02-04T09:14:09.991Z,15.88
2019-02-04T09:16:36.347Z,15.90
2019-02-04T09:19:03.267Z,16.00
2019-02-04T09:21:32.797Z,15.08
2019-02-04T09:23:58.856Z,17.17
2019-02-04T09:26:25.126Z,15.55
2019-02-04T09:28:51.890Z,15.60
2019-02-04T09:31:18.447Z,15.78
2019-02-04T09:33:45.041Z,15.80
2019-02-04T09:36:11.380Z,16.62
2019-02-04T09:38:37.903Z,16.02
2019-02-04T09:41:04.261Z,15.85
2019-02-04T09:43:30.510Z,17.55
2019-02-04T09:45:56.755Z,17.23
2019-02-04T09:48:23.312Z,15.58
2019-02-04T09:50:51.253Z,15.45
2019-02-04T09:53:17.703Z,16.05
2019-02-04T09:55:43.935Z,16.12
2019-02-04T09:58:10.175Z,15.85
2019-02-04T10:00:36.725Z,16.12
2019-02-04T10:03:04.644Z,16.80
2019-02-04T10:05:31.439Z,15.95
2019-02-04T10:07:58.187Z,15.70
2019-02-04T10:10:26.787Z,17.37
2019-02-04T10:12:53.015Z,16.37
2019-02-04T10:15:22.047Z,16.25
2019-02-04T10:17:48.363Z,16.05
2019-02-04T10:20:16.322Z,15.58
2019-02-04T10:22:43.258Z,16.57
2019-02-04T10:25:13.190Z,15.35
2019-02-04T10:27:39.825Z,14.85
2019-02-04T10:30:09.904Z,13.35
2019-02-04T10:32:36.233Z,14.60
2019-02-04T10:35:16.397Z,14.40
2019-02-04T10:37:33.073Z,13.60
2019-02-04T10:39:59.341Z,15.15
2019-02-04T10:42:25.800Z,14.50
2019-02-04T10:44:52.083Z,15.00
2019-02-04T10:47:18.760Z,13.72
2019-02-04T10:49:44.979Z,12.93
2019-02-04T10:52:11.456Z,13.72
2019-02-04T10:54:37.679Z,14.83
2019-02-04T10:57:04.153Z,13.53
2019-02-04T10:59:30.402Z,13.53
2019-02-04T11:01:56.859Z,13.30
2019-02-04T11:04:23.284Z,13.00
2019-02-04T11:06:49.508Z,12.95
2019-02-04T11:09:15.815Z,12.55
2019-02-04T11:11:42.056Z,11.48
2019-02-04T11:14:08.821Z,13.60
2019-02-04T11:16:35.164Z,12.28
2019-02-04T11:19:01.486Z,12.60
2019-02-04T11:21:27.737Z,11.38
2019-02-04T11:23:54.342Z,12.30
2019-02-04T11:26:20.583Z,10.80
2019-02-04T11:28:47.180Z,13.10
2019-02-04T11:31:13.483Z,11.30
2019-02-04T11:33:39.714Z,11.90
2019-02-04T11:36:06.030Z,11.95
2019-02-04T11:38:33.015Z,12.50
2019-02-04T11:40:59.408Z,11.18
2019-02-04T11:43:25.708Z,10.65
2019-02-04T11:45:54.872Z,9.88
2019-02-04T11:48:20.151Z,11.35
2019-02-04T11:53:32.874Z,10.43
2019-02-04T11:55:56.819Z,11.30
2019-02-04T11:58:23.170Z,11.00
2019-02-04T12:00:51.292Z,9.38
2019-02-04T12:03:17.750Z,9.10
2019-02-04T12:05:44.838Z,10.43
2019-02-04T12:08:11.657Z,9.50
2019-02-04T12:10:47.476Z,10.75
2019-02-04T12:13:13.997Z,10.35
2019-02-04T12:15:40.481Z,11.78
2019-02-04T12:18:07.121Z,10.20
2019-02-04T12:20:33.518Z,9.95
2019-02-04T12:22:59.933Z,10.25
2019-02-04T12:25:27.030Z,10.30
2019-02-04T12:27:54.569Z,10.25
2019-02-04T12:30:31.008Z,10.43
2019-02-04T12:32:58.491Z,9.73
2019-02-04T12:35:25.403Z,10.40
2019-02-04T12:37:52.318Z,9.20
2019-02-04T12:40:19.943Z,8.95
2019-02-04T12:42:47.013Z,10.18
2019-02-04T12:45:35.308Z,8.83
2019-02-04T12:48:01.920Z,9.38
2019-02-04T12:50:28.579Z,9.60
2019-02-04T12:52:55.483Z,9.08
2019-02-04T12:55:25.589Z,9.23
2019-02-04T12:57:51.983Z,8.55
2019-02-04T13:00:24.217Z,9.53
2019-02-04T13:02:50.847Z,8.43
2019-02-04T13:05:21.069Z,8.03
2019-02-04T13:07:47.751Z,9.40
2019-02-04T13:10:16.285Z,8.63
2019-02-04T13:12:42.841Z,7.92
2019-02-04T13:15:15.215Z,9.18
2019-02-04T13:17:44.909Z,8.78
2019-02-04T13:20:16.759Z,8.70
2019-02-04T13:22:43.407Z,8.03
2019-02-04T13:25:15.997Z,9.05
2019-02-04T13:27:42.489Z,8.60
2019-02-04T13:30:15.190Z,9.00
2019-02-04T13:32:41.596Z,8.50
2019-02-04T13:35:09.990Z,7.92
2019-02-04T13:37:36.293Z,8.40
2019-02-04T13:40:06.553Z,8.15
2019-02-04T13:42:33.399Z,7.80
2019-02-04T13:45:00.106Z,8.78
2019-02-04T13:47:26.654Z,8.23
2019-02-04T13:49:53.008Z,7.72
2019-02-04T13:52:19.409Z,7.28
2019-02-04T13:54:45.759Z,8.10
2019-02-04T13:57:12.221Z,8.33
2019-02-04T13:59:38.829Z,7.55
2019-02-04T14:02:05.622Z,7.47
2019-02-04T14:04:32.529Z,7.90
2019-02-04T14:06:59.292Z,7.37
2019-02-04T14:09:25.707Z,7.90
2019-02-04T14:11:52.745Z,7.30
2019-02-04T14:14:19.295Z,7.05
2019-02-04T14:16:46.373Z,8.08
2019-02-04T14:19:12.940Z,7.08
2019-02-04T14:21:39.258Z,6.60
2019-02-04T14:24:06.277Z,6.92
2019-02-04T14:26:32.913Z,7.87
2019-02-04T14:28:59.340Z,7.05
2019-02-04T14:31:25.847Z,6.25
2019-02-04T14:33:52.994Z,6.90
2019-02-04T14:36:19.780Z,6.72
2019-02-04T14:38:46.168Z,5.97
2019-02-04T14:41:12.853Z,5.72
2019-02-04T14:43:42.498Z,5.60
2019-02-04T14:46:12.577Z,7.35
2019-02-04T14:48:48.794Z,6.40
2019-02-04T14:51:37.346Z,7.37
2019-02-04T14:54:24.363Z,6.30
2019-02-04T14:56:57.289Z,6.70
2019-02-04T14:59:25.319Z,6.53
2019-02-04T15:02:19.542Z,6.33
2019-02-04T15:05:02.159Z,6.25
2019-02-04T15:07:55.245Z,6.17
2019-02-04T15:10:46.360Z,6.25
2019-02-04T15:13:21.933Z,6.65
2019-02-04T15:16:04.516Z,6.42
2019-02-04T15:18:54.401Z,6.75
2019-02-04T15:21:39.805Z,6.90
2019-02-04T15:24:32.614Z,6.35
2019-02-04T15:27:02.654Z,6.75
2019-02-04T15:29:46.155Z,6.42
2019-02-04T15:32:20.103Z,6.42
2019-02-04T15:35:03.848Z,6.53
2019-02-04T15:37:28.010Z,7.10
2019-02-04T15:39:58.229Z,6.80
2019-02-04T15:42:46.888Z,6.55
2019-02-04T15:45:40.154Z,6.28
2019-02-04T15:48:07.063Z,6.80
2019-02-04T15:50:58.336Z,7.17
2019-02-04T15:53:25.384Z,6.53
2019-02-04T15:55:51.808Z,6.70
2019-02-04T15:58:18.501Z,7.15
2019-02-04T16:00:45.712Z,6.10
2019-02-04T16:03:12.269Z,6.80
2019-02-04T16:05:38.699Z,6.42
2019-02-04T16:08:05.227Z,6.12
2019-02-04T16:10:32.021Z,6.37
2019-02-04T16:12:58.435Z,5.80
2019-02-04T16:15:24.799Z,6.75
2019-02-04T16:17:51.264Z,6.70
2019-02-04T16:20:20.619Z,6.97
2019-02-04T16:22:57.771Z,6.97
2019-02-04T16:25:17.930Z,6.35
2019-02-04T16:27:51.801Z,6.65
2019-02-04T16:30:21.069Z,6.95
2019-02-04T16:32:47.735Z,5.90
2019-02-04T16:35:16.261Z,6.92
2019-02-04T16:37:43.248Z,6.80
2019-02-04T16:40:15.115Z,6.45
2019-02-04T16:42:41.464Z,7.20
2019-02-04T16:45:14.252Z,6.65
2019-02-04T16:47:42.624Z,6.80
2019-02-04T16:50:30.153Z,6.65
2019-02-04T16:52:56.595Z,6.95
2019-02-04T16:55:23.402Z,6.87
2019-02-04T16:57:49.927Z,6.50
2019-02-04T17:00:31.939Z,6.87
2019-02-04T17:02:58.200Z,7.15
2019-02-04T17:05:26.124Z,6.55
2019-02-04T17:07:55.538Z,6.45
2019-02-04T17:10:24.110Z,7.17
2019-02-04T17:12:51.275Z,6.87
2019-02-04T17:15:18.220Z,6.97
2019-02-04T17:18:04.516Z,7.00
2019-02-04T17:20:32.993Z,6.20
2019-02-04T17:23:08.952Z,6.50
2019-02-04T17:25:35.693Z,7.12
2019-02-04T17:28:02.789Z,6.90
2019-02-04T17:30:29.382Z,6.90
2019-02-04T17:32:56.117Z,7.03
2019-02-04T17:35:24.909Z,6.65
2019-02-04T17:37:51.287Z,6.60
2019-02-04T17:40:20.535Z,6.95
2019-02-04T17:42:47.205Z,7.50
2019-02-04T17:45:15.775Z,6.65
2019-02-04T17:47:42.824Z,7.15
2019-02-04T17:50:15.352Z,6.80
2019-02-04T17:52:41.793Z,7.33
2019-02-04T17:55:17.565Z,6.72
2019-02-04T17:57:44.018Z,7.25
2019-02-04T18:00:15.884Z,7.67
2019-02-04T18:02:42.219Z,7.22
2019-02-04T18:05:08.721Z,7.08
2019-02-04T18:07:35.209Z,6.97
2019-02-04T18:10:02.318Z,6.95
2019-02-04T18:12:28.627Z,7.35
2019-02-04T18:14:59.741Z,7.40
2019-02-04T18:17:29.143Z,7.22
2019-02-04T18:19:56.875Z,7.17
2019-02-04T18:22:23.148Z,7.45
2019-02-04T18:24:49.484Z,6.92
2019-02-04T18:27:16.205Z,7.58
2019-02-04T18:29:42.581Z,7.50
2019-02-04T18:32:09.656Z,7.53
2019-02-04T18:34:36.061Z,6.72
2019-02-04T18:37:03.058Z,7.08
2019-02-04T18:39:29.561Z,7.50
2019-02-04T18:41:55.918Z,6.62
2019-02-04T18:44:25.271Z,6.75
2019-02-04T18:46:51.805Z,6.47
2019-02-04T18:49:18.258Z,6.28
2019-02-04T18:51:45.144Z,7.40
2019-02-04T18:54:14.675Z,6.75
2019-02-04T18:56:41.052Z,7.50
2019-02-04T18:59:07.729Z,7.22
2019-02-04T19:01:34.039Z,6.40
2019-02-04T19:04:00.740Z,6.75
2019-02-04T19:06:27.443Z,6.95
2019-02-04T19:08:54.068Z,7.33
2019-02-04T19:11:20.412Z,7.50
2019-02-04T19:13:46.650Z,7.97
2019-02-04T19:16:12.998Z,7.12
2019-02-04T19:18:39.673Z,7.55
2019-02-04T19:21:06.067Z,7.55
2019-02-04T19:23:32.607Z,7.65
2019-02-04T19:26:05.426Z,6.97
2019-02-04T19:28:31.815Z,7.37
2019-02-04T19:31:01.895Z,7.35
2019-02-04T19:33:29.596Z,7.25
2019-02-04T19:35:55.857Z,7.47
2019-02-04T19:38:22.154Z,7.90
2019-02-04T19:40:48.469Z,8.08
2019-02-04T19:43:15.218Z,7.33
2019-02-04T19:45:44.438Z,8.00
2019-02-04T19:48:10.772Z,8.43
2019-02-04T19:50:37.242Z,7.42
2019-02-04T19:53:04.027Z,8.00
2019-02-04T19:55:30.397Z,7.45
2019-02-04T19:57:57.366Z,7.25
2019-02-04T20:00:24.332Z,7.55
2019-02-04T20:02:52.499Z,7.00
2019-02-04T20:05:29.505Z,7.40
2019-02-04T20:07:56.043Z,7.33
2019-02-04T20:10:32.022Z,6.42
2019-02-04T20:12:59.070Z,6.45
2019-02-04T20:15:27.654Z,7.60
2019-02-04T20:17:54.369Z,6.80
2019-02-04T20:20:20.837Z,7.17
2019-02-04T20:22:47.377Z,7.70
2019-02-04T20:25:19.819Z,6.75
2019-02-04T20:27:46.120Z,6.90
2019-02-04T20:30:18.165Z,7.50
2019-02-04T20:32:44.417Z,7.30
2019-02-04T20:35:14.105Z,7.12
2019-02-04T20:37:40.385Z,6.83
2019-02-04T20:40:14.652Z,7.15
2019-02-04T20:42:41.414Z,7.30
2019-02-04T20:45:10.775Z,8.10
2019-02-04T20:47:37.462Z,7.75
2019-02-04T20:50:07.723Z,7.30
2019-02-04T20:52:33.978Z,6.85
2019-02-04T20:55:00.285Z,6.87
2019-02-04T20:57:26.538Z,7.60
2019-02-04T20:59:53.172Z,8.13
2019-02-04T21:02:20.408Z,7.05
2019-02-04T21:04:46.742Z,7.33
2019-02-04T21:07:13.092Z,7.10
2019-02-04T21:09:39.486Z,7.50
2019-02-04T21:12:05.861Z,7.08
2019-02-04T21:14:32.149Z,10.63
2019-02-04T21:16:59.115Z,10.25
2019-02-04T21:19:25.665Z,8.58
2019-02-04T21:21:51.985Z,8.30
2019-02-04T21:24:18.255Z,7.53
2019-02-04T21:26:45.556Z,7.12
2019-02-04T21:29:11.823Z,7.60
2019-02-04T21:31:38.127Z,7.75
2019-02-04T21:34:04.504Z,8.23
2019-02-04T21:36:30.797Z,7.58
2019-02-04T21:38:57.053Z,8.08
2019-02-04T21:41:23.348Z,7.85
2019-02-04T21:43:49.597Z,7.90
2019-02-04T21:46:16.627Z,8.15
2019-02-04T21:48:46.356Z,8.85
2019-02-04T21:51:12.663Z,8.45
2019-02-04T21:53:39.307Z,8.28
2019-02-04T21:56:05.799Z,7.75
2019-02-04T21:58:32.198Z,11.93
2019-02-04T22:00:58.559Z,9.38
2019-02-04T22:03:25.441Z,7.30
2019-02-04T22:05:52.007Z,8.08
2019-02-04T22:08:18.424Z,8.33
2019-02-04T22:10:44.732Z,8.80
2019-02-04T22:13:11.085Z,8.75
2019-02-04T22:15:37.921Z,7.80
2019-02-04T22:18:05.157Z,8.30
2019-02-04T22:20:32.027Z,8.70
2019-02-04T22:22:58.523Z,8.88
2019-02-04T22:25:25.312Z,9.40
2019-02-04T22:27:51.793Z,9.40
2019-02-04T22:30:23.263Z,9.20
2019-02-04T22:32:50.153Z,9.40
2019-02-04T22:35:17.327Z,9.20
2019-02-04T22:37:44.161Z,8.50
2019-02-04T22:40:14.086Z,9.03
2019-02-04T22:42:40.756Z,8.73
2019-02-04T22:45:10.215Z,9.08
2019-02-04T22:47:36.495Z,9.93
2019-02-04T22:50:09.376Z,8.73
2019-02-04T22:52:35.755Z,9.53
2019-02-04T22:55:02.342Z,9.53
2019-02-04T22:57:29.008Z,9.23
2019-02-04T22:59:55.293Z,9.18
2019-02-04T23:02:21.834Z,9.20
2019-02-04T23:04:48.421Z,9.60
2019-02-04T23:07:16.313Z,9.53
2019-02-04T23:09:42.871Z,9.65
2019-02-04T23:12:09.454Z,8.93
2019-02-04T23:14:37.424Z,8.90
2019-02-04T23:17:03.906Z,9.80
2019-02-04T23:19:30.214Z,10.05
2019-02-04T23:21:56.656Z,10.08
2019-02-04T23:24:23.390Z,9.85
2019-02-04T23:26:49.981Z,9.78
2019-02-04T23:29:16.256Z,9.43
2019-02-04T23:31:42.741Z,9.78
2019-02-04T23:34:09.338Z,9.55
2019-02-04T23:36:35.863Z,10.32
2019-02-04T23:39:08.769Z,10.60
2019-02-04T23:41:35.255Z,10.43
2019-02-04T23:44:01.599Z,11.10
2019-02-04T23:46:28.008Z,11.97
2019-02-04T23:48:54.449Z,12.50
2019-02-04T23:51:25.010Z,10.23
2019-02-04T23:53:51.990Z,9.13
2019-02-04T23:56:18.689Z,10.00
2019-02-04T23:58:50.971Z,9.95
